< < Back
Terminal Aerodrome Forecast


Current Version              Previous Versions:   1  2  3  4  5  6  7  8  9  

Terminal Aerodrome Forecast

925
FTUS44 KOHX 290529
TAFBNA
TAF
KBNA 290529Z 2906/3006 31003KT P6SM SCT035 BKN120 BKN250
      TEMPO 2909/2912 4SM BR
     FM291400 32004KT P6SM SCT100 BKN250
     FM291800 35006KT P6SM VCTS SCT050CB BKN250
     FM300100 36005KT P6SM SCT050 BKN140=

Latest METAR

854
SAUS70 KWBC 290900 RRJ
MTRBNA
METAR KBNA 290853Z 00000KT 7SM BCFG FEW050 BKN250 23/23 A2999 RMK AO2
SLP146 T02330233 55009 $


USA.gov is the U.S. government's official web portal to all federal, state and local government web resources and services.